sensor_id;sensor_type;location;lat;lon;timestamp;pressure;altitude;pressure_sealevel;temperature;humidity
48668;BME280;34453;52.198;5.004;2023-04-30T00:01:48;102560.59;;;7.65;100.00
48668;BME280;34453;52.198;5.004;2023-04-30T00:04:13;102563.84;;;7.68;100.00
48668;BME280;34453;52.198;5.004;2023-04-30T00:06:39;102554.28;;;7.69;100.00
48668;BME280;34453;52.198;5.004;2023-04-30T00:09:04;102557.63;;;7.71;100.00
48668;BME280;34453;52.198;5.004;2023-04-30T00:11:30;102557.81;;;7.68;100.00
48668;BME280;34453;52.198;5.004;2023-04-30T00:13:55;102552.31;;;7.57;100.00
48668;BME280;34453;52.198;5.004;2023-04-30T00:16:21;102555.31;;;7.49;100.00
48668;BME280;34453;52.198;5.004;2023-04-30T00:18:47;102553.50;;;7.34;100.00
48668;BME280;34453;52.198;5.004;2023-04-30T00:21:12;102562.22;;;7.33;100.00
48668;BME280;34453;52.198;5.004;2023-04-30T00:23:38;102562.22;;;7.33;100.00
48668;BME280;34453;52.198;5.004;2023-04-30T00:26:03;102558.63;;;7.35;100.00
48668;BME280;34453;52.198;5.004;2023-04-30T00:28:28;102561.38;;;7.32;100.00
48668;BME280;34453;52.198;5.004;2023-04-30T00:30:54;102564.13;;;7.29;100.00
48668;BME280;34453;52.198;5.004;2023-04-30T00:33:19;102567.84;;;7.25;100.00
48668;BME280;34453;52.198;5.004;2023-04-30T00:35:45;102564.94;;;7.14;100.00
48668;BME280;34453;52.198;5.004;2023-04-30T00:38:11;102571.09;;;7.11;100.00
48668;BME280;34453;52.198;5.004;2023-04-30T00:40:37;102572.03;;;7.10;100.00
48668;BME280;34453;52.198;5.004;2023-04-30T00:43:04;102575.41;;;7.12;100.00
48668;BME280;34453;52.198;5.004;2023-04-30T00:45:30;102579.63;;;7.15;100.00
48668;BME280;34453;52.198;5.004;2023-04-30T00:47:55;102582.06;;;7.18;100.00
48668;BME280;34453;52.198;5.004;2023-04-30T00:50:21;102580.22;;;7.20;100.00
48668;BME280;34453;52.198;5.004;2023-04-30T00:52:47;102586.34;;;7.19;100.00
48668;BME280;34453;52.198;5.004;2023-04-30T00:55:13;102583.75;;;7.19;100.00
48668;BME280;34453;52.198;5.004;2023-04-30T00:57:39;102583.88;;;7.16;100.00
48668;BME280;34453;52.198;5.004;2023-04-30T01:00:06;102591.69;;;7.16;100.00
48668;BME280;34453;52.198;5.004;2023-04-30T01:02:34;102591.63;;;7.17;100.00
48668;BME280;34453;52.198;5.004;2023-04-30T01:05:01;102589.88;;;7.18;100.00
48668;BME280;34453;52.198;5.004;2023-04-30T01:07:28;102596.47;;;7.25;100.00
48668;BME280;34453;52.198;5.004;2023-04-30T01:09:54;102593.88;;;7.25;100.00
48668;BME280;34453;52.198;5.004;2023-04-30T01:12:28;102592.25;;;7.22;100.00
48668;BME280;34453;52.198;5.004;2023-04-30T01:15:10;102587.34;;;7.16;100.00
48668;BME280;34453;52.198;5.004;2023-04-30T01:17:42;102584.97;;;7.12;100.00
48668;BME280;34453;52.198;5.004;2023-04-30T01:20:11;102584.50;;;7.03;100.00
48668;BME280;34453;52.198;5.004;2023-04-30T01:22:45;102586.50;;;6.98;100.00
48668;BME280;34453;52.198;5.004;2023-04-30T01:28:19;102591.06;;;6.93;100.00
48668;BME280;34453;52.198;5.004;2023-04-30T01:30:46;102579.91;;;6.91;100.00
48668;BME280;34453;52.198;5.004;2023-04-30T01:33:12;102589.41;;;6.92;100.00
48668;BME280;34453;52.198;5.004;2023-04-30T01:38:32;102588.25;;;6.80;100.00
48668;BME280;34453;52.198;5.004;2023-04-30T01:43:38;102578.13;;;6.74;100.00
48668;BME280;34453;52.198;5.004;2023-04-30T01:46:23;102585.78;;;6.77;100.00
48668;BME280;34453;52.198;5.004;2023-04-30T01:51:27;102593.03;;;6.71;100.00
48668;BME280;34453;52.198;5.004;2023-04-30T01:54:02;102601.09;;;6.64;100.00
48668;BME280;34453;52.198;5.004;2023-04-30T01:56:31;102598.66;;;6.61;100.00
48668;BME280;34453;52.198;5.004;2023-04-30T01:59:00;102604.56;;;6.65;100.00
48668;BME280;34453;52.198;5.004;2023-04-30T02:01:32;102606.03;;;6.71;100.00
48668;BME280;34453;52.198;5.004;2023-04-30T02:03:58;102609.97;;;6.79;100.00
48668;BME280;34453;52.198;5.004;2023-04-30T02:06:24;102613.31;;;6.81;100.00
48668;BME280;34453;52.198;5.004;2023-04-30T02:08:53;102621.06;;;6.83;100.00
48668;BME280;34453;52.198;5.004;2023-04-30T02:11:19;102612.34;;;6.84;100.00
48668;BME280;34453;52.198;5.004;2023-04-30T02:13:44;102607.00;;;6.87;100.00
48668;BME280;34453;52.198;5.004;2023-04-30T02:16:10;102609.78;;;6.82;100.00
48668;BME280;34453;52.198;5.004;2023-04-30T02:18:35;102600.38;;;6.80;100.00
48668;BME280;34453;52.198;5.004;2023-04-30T02:21:01;102609.66;;;6.85;100.00
48668;BME280;34453;52.198;5.004;2023-04-30T02:23:26;102614.59;;;6.92;100.00
48668;BME280;34453;52.198;5.004;2023-04-30T02:25:51;102613.66;;;6.93;100.00
48668;BME280;34453;52.198;5.004;2023-04-30T02:28:17;102615.91;;;7.00;100.00
48668;BME280;34453;52.198;5.004;2023-04-30T02:30:42;102615.44;;;7.10;100.00
48668;BME280;34453;52.198;5.004;2023-04-30T02:33:08;102609.38;;;7.09;100.00
48668;BME280;34453;52.198;5.004;2023-04-30T02:35:36;102607.78;;;7.06;100.00
48668;BME280;34453;52.198;5.004;2023-04-30T02:38:02;102602.44;;;7.10;100.00
48668;BME280;34453;52.198;5.004;2023-04-30T02:40:27;102587.81;;;7.07;100.00
48668;BME280;34453;52.198;5.004;2023-04-30T02:42:52;102586.94;;;7.06;100.00
48668;BME280;34453;52.198;5.004;2023-04-30T02:45:20;102582.44;;;7.10;100.00
48668;BME280;34453;52.198;5.004;2023-04-30T02:47:46;102583.22;;;7.12;100.00
48668;BME280;34453;52.198;5.004;2023-04-30T02:50:11;102583.34;;;7.09;100.00
48668;BME280;34453;52.198;5.004;2023-04-30T02:52:37;102584.22;;;7.10;100.00
48668;BME280;34453;52.198;5.004;2023-04-30T02:55:02;102592.94;;;7.09;100.00
48668;BME280;34453;52.198;5.004;2023-04-30T02:57:28;102595.53;;;7.09;100.00
48668;BME280;34453;52.198;5.004;2023-04-30T02:59:53;102595.81;;;7.02;100.00
48668;BME280;34453;52.198;5.004;2023-04-30T03:04:44;102589.25;;;6.95;100.00
48668;BME280;34453;52.198;5.004;2023-04-30T03:07:10;102594.38;;;6.97;100.00
48668;BME280;34453;52.198;5.004;2023-04-30T03:09:35;102601.03;;;7.02;100.00
48668;BME280;34453;52.198;5.004;2023-04-30T03:12:01;102594.91;;;7.03;100.00
48668;BME280;34453;52.198;5.004;2023-04-30T03:14:26;102598.53;;;7.01;100.00
48668;BME280;34453;52.198;5.004;2023-04-30T03:16:52;102601.91;;;7.03;100.00
48668;BME280;34453;52.198;5.004;2023-04-30T03:19:17;102600.28;;;7.00;100.00
48668;BME280;34453;52.198;5.004;2023-04-30T03:21:46;102601.78;;;7.04;100.00
48668;BME280;34453;52.198;5.004;2023-04-30T03:24:11;102601.97;;;7.01;100.00
48668;BME280;34453;52.198;5.004;2023-04-30T03:26:37;102595.81;;;7.02;100.00
48668;BME280;34453;52.198;5.004;2023-04-30T03:29:02;102595.00;;;7.02;100.00
48668;BME280;34453;52.198;5.004;2023-04-30T03:31:27;102590.78;;;6.99;100.00
48668;BME280;34453;52.198;5.004;2023-04-30T03:33:53;102595.16;;;6.99;100.00
48668;BME280;34453;52.198;5.004;2023-04-30T03:36:18;102596.28;;;6.93;100.00
48668;BME280;34453;52.198;5.004;2023-04-30T03:38:43;102585.97;;;6.92;100.00
48668;BME280;34453;52.198;5.004;2023-04-30T03:41:09;102583.19;;;6.95;100.00
48668;BME280;34453;52.198;5.004;2023-04-30T03:43:35;102580.53;;;6.96;100.00
48668;BME280;34453;52.198;5.004;2023-04-30T03:46:02;102583.44;;;7.08;100.00
48668;BME280;34453;52.198;5.004;2023-04-30T03:48:27;102587.72;;;7.09;100.00
48668;BME280;34453;52.198;5.004;2023-04-30T03:50:52;102586.06;;;7.08;100.00
48668;BME280;34453;52.198;5.004;2023-04-30T03:53:18;102584.34;;;7.06;100.00
48668;BME280;34453;52.198;5.004;2023-04-30T03:55:43;102592.16;;;7.06;100.00
48668;BME280;34453;52.198;5.004;2023-04-30T03:58:09;102586.19;;;7.04;100.00
48668;BME280;34453;52.198;5.004;2023-04-30T04:00:34;102586.19;;;7.04;100.00
48668;BME280;34453;52.198;5.004;2023-04-30T04:03:00;102590.56;;;7.04;100.00
48668;BME280;34453;52.198;5.004;2023-04-30T04:05:26;102586.28;;;7.03;100.00
48668;BME280;34453;52.198;5.004;2023-04-30T04:07:51;102584.34;;;7.06;100.00
48668;BME280;34453;52.198;5.004;2023-04-30T04:10:17;102580.75;;;7.09;100.00
48668;BME280;34453;52.198;5.004;2023-04-30T04:12:42;102583.28;;;7.11;100.00
48668;BME280;34453;52.198;5.004;2023-04-30T04:15:08;102574.56;;;7.12;100.00
48668;BME280;34453;52.198;5.004;2023-04-30T04:17:33;102569.38;;;7.12;100.00
48668;BME280;34453;52.198;5.004;2023-04-30T04:19:59;102571.19;;;7.10;100.00
48668;BME280;34453;52.198;5.004;2023-04-30T04:22:24;102570.66;;;7.03;100.00
48668;BME280;34453;52.198;5.004;2023-04-30T04:24:50;102573.09;;;7.06;100.00
48668;BME280;34453;52.198;5.004;2023-04-30T04:27:15;102578.06;;;7.11;100.00
48668;BME280;34453;52.198;5.004;2023-04-30T04:29:41;102572.03;;;7.10;100.00
48668;BME280;34453;52.198;5.004;2023-04-30T04:32:06;102576.84;;;7.18;100.00
48668;BME280;34453;52.198;5.004;2023-04-30T04:34:32;102574.13;;;7.21;100.00
48668;BME280;34453;52.198;5.004;2023-04-30T04:36:57;102568.13;;;7.19;100.00
48668;BME280;34453;52.198;5.004;2023-04-30T04:39:23;102574.88;;;7.23;100.00
48668;BME280;34453;52.198;5.004;2023-04-30T04:41:48;102580.84;;;7.25;100.00
48668;BME280;34453;52.198;5.004;2023-04-30T04:44:13;102583.47;;;7.25;100.00
48668;BME280;34453;52.198;5.004;2023-04-30T04:46:39;102576.72;;;7.21;100.00
48668;BME280;34453;52.198;5.004;2023-04-30T04:49:08;102581.75;;;7.24;100.00
48668;BME280;34453;52.198;5.004;2023-04-30T04:51:34;102583.34;;;7.26;100.00
48668;BME280;34453;52.198;5.004;2023-04-30T04:54:00;102590.03;;;7.32;100.00
48668;BME280;34453;52.198;5.004;2023-04-30T04:56:25;102583.06;;;7.33;100.00
48668;BME280;34453;52.198;5.004;2023-04-30T04:58:50;102581.28;;;7.33;100.00
48668;BME280;34453;52.198;5.004;2023-04-30T05:01:16;102582.88;;;7.36;100.00
48668;BME280;34453;52.198;5.004;2023-04-30T05:03:41;102594.31;;;7.33;100.00
48668;BME280;34453;52.198;5.004;2023-04-30T05:06:06;102585.66;;;7.33;100.00
48668;BME280;34453;52.198;5.004;2023-04-30T05:08:32;102586.78;;;7.44;100.00
48668;BME280;34453;52.198;5.004;2023-04-30T05:10:57;102586.50;;;7.51;100.00
48668;BME280;34453;52.198;5.004;2023-04-30T05:13:23;102582.81;;;7.55;100.00
48668;BME280;34453;52.198;5.004;2023-04-30T05:15:50;102578.06;;;7.63;100.00
48668;BME280;34453;52.198;5.004;2023-04-30T05:18:16;102583.88;;;7.68;100.00
48668;BME280;34453;52.198;5.004;2023-04-30T05:20:41;102568.22;;;7.68;100.00
48668;BME280;34453;52.198;5.004;2023-04-30T05:23:06;102575.63;;;7.76;100.00
48668;BME280;34453;52.198;5.004;2023-04-30T05:25:32;102588.28;;;7.83;100.00
48668;BME280;34453;52.198;5.004;2023-04-30T05:27:57;102587.97;;;7.89;100.00
48668;BME280;34453;52.198;5.004;2023-04-30T05:30:23;102587.97;;;7.89;100.00
48668;BME280;34453;52.198;5.004;2023-04-30T05:32:48;102596.38;;;7.95;100.00
48668;BME280;34453;52.198;5.004;2023-04-30T05:35:17;102601.34;;;7.99;100.00
48668;BME280;34453;52.198;5.004;2023-04-30T05:37:42;102592.50;;;8.02;100.00
48668;BME280;34453;52.198;5.004;2023-04-30T05:40:08;102593.84;;;8.09;100.00
48668;BME280;34453;52.198;5.004;2023-04-30T05:42:34;102609.03;;;8.18;100.00
48668;BME280;34453;52.198;5.004;2023-04-30T05:45:01;102605.50;;;8.19;100.00
48668;BME280;34453;52.198;5.004;2023-04-30T05:47:26;102606.84;;;8.26;100.00
48668;BME280;34453;52.198;5.004;2023-04-30T05:49:51;102601.53;;;8.28;100.00
48668;BME280;34453;52.198;5.004;2023-04-30T05:52:17;102600.22;;;8.37;100.00
48668;BME280;34453;52.198;5.004;2023-04-30T05:54:42;102599.97;;;8.41;100.00
48668;BME280;34453;52.198;5.004;2023-04-30T05:57:08;102606.38;;;8.52;100.00
48668;BME280;34453;52.198;5.004;2023-04-30T05:59:33;102608.00;;;8.54;100.00
48668;BME280;34453;52.198;5.004;2023-04-30T06:01:59;102613.78;;;8.59;100.00
48668;BME280;34453;52.198;5.004;2023-04-30T06:04:24;102606.72;;;8.61;100.00
48668;BME280;34453;52.198;5.004;2023-04-30T06:06:49;102608.88;;;8.69;100.00
48668;BME280;34453;52.198;5.004;2023-04-30T06:09:15;102610.66;;;8.68;100.00
48668;BME280;34453;52.198;5.004;2023-04-30T06:11:40;102606.38;;;8.67;100.00
48668;BME280;34453;52.198;5.004;2023-04-30T06:14:06;102607.38;;;8.81;100.00
48668;BME280;34453;52.198;5.004;2023-04-30T06:16:31;102603.47;;;8.88;100.00
48668;BME280;34453;52.198;5.004;2023-04-30T06:18:57;102605.84;;;8.92;100.00
48668;BME280;34453;52.198;5.004;2023-04-30T06:21:22;102606.31;;;8.99;100.00
48668;BME280;34453;52.198;5.004;2023-04-30T06:23:51;102605.31;;;9.02;100.00
48668;BME280;34453;52.198;5.004;2023-04-30T06:26:18;102603.25;;;9.07;100.00
48668;BME280;34453;52.198;5.004;2023-04-30T06:28:43;102606.47;;;9.12;100.00
48668;BME280;34453;52.198;5.004;2023-04-30T06:31:09;102595.69;;;9.18;100.00
48668;BME280;34453;52.198;5.004;2023-04-30T06:33:34;102588.78;;;9.31;100.00
48668;BME280;34453;52.198;5.004;2023-04-30T06:36:00;102601.81;;;9.47;100.00
48668;BME280;34453;52.198;5.004;2023-04-30T06:38:25;102600.50;;;9.54;100.00
48668;BME280;34453;52.198;5.004;2023-04-30T06:40:51;102600.22;;;9.59;100.00
48668;BME280;34453;52.198;5.004;2023-04-30T06:43:16;102601.25;;;9.71;100.00
48668;BME280;34453;52.198;5.004;2023-04-30T06:45:42;102599.78;;;9.81;100.00
48668;BME280;34453;52.198;5.004;2023-04-30T06:48:08;102611.81;;;9.84;100.00
48668;BME280;34453;52.198;5.004;2023-04-30T06:50:33;102604.91;;;9.97;100.00
48668;BME280;34453;52.198;5.004;2023-04-30T06:52:59;102605.00;;;10.10;100.00
48668;BME280;34453;52.198;5.004;2023-04-30T06:55:24;102603.59;;;10.19;100.00
48668;BME280;34453;52.198;5.004;2023-04-30T06:57:52;102599.66;;;10.26;100.00
48668;BME280;34453;52.198;5.004;2023-04-30T07:00:18;102594.41;;;10.26;100.00
48668;BME280;34453;52.198;5.004;2023-04-30T07:02:44;102602.16;;;10.42;100.00
48668;BME280;34453;52.198;5.004;2023-04-30T07:05:11;102608.78;;;10.47;100.00
48668;BME280;34453;52.198;5.004;2023-04-30T07:07:37;102603.13;;;10.41;100.00
48668;BME280;34453;52.198;5.004;2023-04-30T07:10:03;102602.09;;;10.56;100.00
48668;BME280;34453;52.198;5.004;2023-04-30T07:12:28;102598.41;;;10.46;100.00
48668;BME280;34453;52.198;5.004;2023-04-30T07:14:54;102602.75;;;10.60;100.00
48668;BME280;34453;52.198;5.004;2023-04-30T07:17:19;102602.16;;;10.69;100.00
48668;BME280;34453;52.198;5.004;2023-04-30T07:19:45;102593.34;;;10.57;100.00
48668;BME280;34453;52.198;5.004;2023-04-30T07:22:10;102602.81;;;10.72;100.00
48668;BME280;34453;52.198;5.004;2023-04-30T07:24:36;102594.13;;;10.72;100.00
48668;BME280;34453;52.198;5.004;2023-04-30T07:27:01;102586.91;;;10.75;100.00
48668;BME280;34453;52.198;5.004;2023-04-30T07:29:28;102590.91;;;10.81;100.00
48668;BME280;34453;52.198;5.004;2023-04-30T07:31:54;102589.72;;;10.99;100.00
48668;BME280;34453;52.198;5.004;2023-04-30T07:34:20;102592.75;;;11.06;100.00
48668;BME280;34453;52.198;5.004;2023-04-30T07:36:47;102595.72;;;11.14;100.00
48668;BME280;34453;52.198;5.004;2023-04-30T07:39:12;102591.66;;;11.36;100.00
48668;BME280;34453;52.198;5.004;2023-04-30T07:41:39;102583.91;;;11.34;100.00
48668;BME280;34453;52.198;5.004;2023-04-30T07:44:05;102596.28;;;11.45;100.00
48668;BME280;34453;52.198;5.004;2023-04-30T07:46:30;102593.22;;;11.51;100.00
48668;BME280;34453;52.198;5.004;2023-04-30T07:48:56;102581.59;;;11.43;100.00
48668;BME280;34453;52.198;5.004;2023-04-30T07:51:21;102583.47;;;11.66;100.00
48668;BME280;34453;52.198;5.004;2023-04-30T07:53:47;102580.53;;;11.83;100.00
48668;BME280;34453;52.198;5.004;2023-04-30T07:56:12;102585.69;;;11.85;100.00
48668;BME280;34453;52.198;5.004;2023-04-30T07:58:38;102584.72;;;11.86;100.00
48668;BME280;34453;52.198;5.004;2023-04-30T08:01:03;102582.53;;;12.06;100.00
48668;BME280;34453;52.198;5.004;2023-04-30T08:03:29;102580.41;;;12.11;100.00
48668;BME280;34453;52.198;5.004;2023-04-30T08:05:54;102584.59;;;12.13;100.00
48668;BME280;34453;52.198;5.004;2023-04-30T08:08:20;102577.34;;;12.17;100.00
48668;BME280;34453;52.198;5.004;2023-04-30T08:10:45;102573.16;;;12.14;100.00
48668;BME280;34453;52.198;5.004;2023-04-30T08:13:11;102573.91;;;12.40;100.00
48668;BME280;34453;52.198;5.004;2023-04-30T08:15:36;102574.69;;;12.54;100.00
48668;BME280;34453;52.198;5.004;2023-04-30T08:18:02;102567.84;;;12.64;100.00
48668;BME280;34453;52.198;5.004;2023-04-30T08:20:29;102567.38;;;12.70;100.00
48668;BME280;34453;52.198;5.004;2023-04-30T08:22:54;102571.81;;;12.46;100.00
48668;BME280;34453;52.198;5.004;2023-04-30T08:25:20;102569.13;;;12.34;100.00
48668;BME280;34453;52.198;5.004;2023-04-30T08:27:45;102569.91;;;12.72;100.00
48668;BME280;34453;52.198;5.004;2023-04-30T08:30:11;102575.06;;;12.84;100.00
48668;BME280;34453;52.198;5.004;2023-04-30T08:32:36;102577.50;;;12.88;100.00
48668;BME280;34453;52.198;5.004;2023-04-30T08:35:03;102579.91;;;13.02;100.00
48668;BME280;34453;52.198;5.004;2023-04-30T08:37:29;102578.84;;;13.04;100.00
48668;BME280;34453;52.198;5.004;2023-04-30T08:39:54;102572.50;;;13.31;100.00
48668;BME280;34453;52.198;5.004;2023-04-30T08:42:24;102568.13;;;13.07;100.00
48668;BME280;34453;52.198;5.004;2023-04-30T08:44:49;102572.91;;;13.14;100.00
48668;BME280;34453;52.198;5.004;2023-04-30T08:47:15;102561.25;;;13.29;100.00
48668;BME280;34453;52.198;5.004;2023-04-30T08:49:42;102571.94;;;13.50;100.00
48668;BME280;34453;52.198;5.004;2023-04-30T08:52:09;102571.44;;;13.45;100.00
48668;BME280;34453;52.198;5.004;2023-04-30T08:54:35;102571.78;;;13.52;100.00
48668;BME280;34453;52.198;5.004;2023-04-30T08:57:01;102575.84;;;13.33;100.00
48668;BME280;34453;52.198;5.004;2023-04-30T08:59:26;102564.84;;;13.28;100.00
48668;BME280;34453;52.198;5.004;2023-04-30T09:01:52;102571.56;;;13.32;100.00
48668;BME280;34453;52.198;5.004;2023-04-30T09:04:17;102578.13;;;13.72;100.00
48668;BME280;34453;52.198;5.004;2023-04-30T09:06:43;102566.19;;;13.90;100.00
48668;BME280;34453;52.198;5.004;2023-04-30T09:09:11;102561.88;;;13.89;100.00
48668;BME280;34453;52.198;5.004;2023-04-30T09:11:37;102564.28;;;14.03;100.00
48668;BME280;34453;52.198;5.004;2023-04-30T09:14:02;102556.66;;;14.33;100.00
48668;BME280;34453;52.198;5.004;2023-04-30T09:16:30;102553.25;;;13.98;100.00
48668;BME280;34453;52.198;5.004;2023-04-30T09:19:09;102566.38;;;14.32;100.00
48668;BME280;34453;52.198;5.004;2023-04-30T09:21:35;102555.44;;;14.48;100.00
48668;BME280;34453;52.198;5.004;2023-04-30T09:24:03;102548.34;;;14.60;100.00
48668;BME280;34453;52.198;5.004;2023-04-30T09:26:32;102555.97;;;14.63;100.00
48668;BME280;34453;52.198;5.004;2023-04-30T09:28:59;102551.53;;;14.96;100.00
48668;BME280;34453;52.198;5.004;2023-04-30T09:31:25;102555.06;;;15.06;100.00
48668;BME280;34453;52.198;5.004;2023-04-30T09:33:51;102548.84;;;14.86;100.00
48668;BME280;34453;52.198;5.004;2023-04-30T09:36:18;102544.09;;;15.01;100.00
48668;BME280;34453;52.198;5.004;2023-04-30T09:38:43;102548.38;;;15.02;100.00
48668;BME280;34453;52.198;5.004;2023-04-30T09:41:22;102546.31;;;15.26;100.00
48668;BME280;34453;52.198;5.004;2023-04-30T09:43:48;102544.44;;;15.38;100.00
48668;BME280;34453;52.198;5.004;2023-04-30T09:46:14;102548.56;;;15.62;100.00
48668;BME280;34453;52.198;5.004;2023-04-30T09:48:40;102536.59;;;15.79;100.00
48668;BME280;34453;52.198;5.004;2023-04-30T09:51:08;102545.25;;;16.00;100.00
48668;BME280;34453;52.198;5.004;2023-04-30T09:53:36;102544.59;;;16.17;100.00
48668;BME280;34453;52.198;5.004;2023-04-30T09:56:06;102531.03;;;15.91;100.00
48668;BME280;34453;52.198;5.004;2023-04-30T09:58:36;102533.16;;;15.88;100.00
48668;BME280;34453;52.198;5.004;2023-04-30T10:01:07;102529.16;;;16.23;100.00
48668;BME280;34453;52.198;5.004;2023-04-30T10:03:39;102539.53;;;15.54;100.00
48668;BME280;34453;52.198;5.004;2023-04-30T10:06:06;102535.03;;;15.45;100.00
48668;BME280;34453;52.198;5.004;2023-04-30T10:08:39;102524.06;;;15.81;100.00
48668;BME280;34453;52.198;5.004;2023-04-30T10:11:09;102528.06;;;16.35;100.00
48668;BME280;34453;52.198;5.004;2023-04-30T10:13:53;102520.28;;;16.24;100.00
48668;BME280;34453;52.198;5.004;2023-04-30T10:16:23;102521.41;;;16.50;100.00
48668;BME280;34453;52.198;5.004;2023-04-30T10:18:52;102518.88;;;16.78;100.00
48668;BME280;34453;52.198;5.004;2023-04-30T10:21:21;102516.50;;;17.04;100.00
48668;BME280;34453;52.198;5.004;2023-04-30T10:23:47;102514.97;;;17.02;100.00
48668;BME280;34453;52.198;5.004;2023-04-30T10:26:13;102509.91;;;17.18;100.00
48668;BME280;34453;52.198;5.004;2023-04-30T10:28:41;102500.94;;;17.38;100.00
48668;BME280;34453;52.198;5.004;2023-04-30T10:31:08;102510.69;;;17.38;100.00
48668;BME280;34453;52.198;5.004;2023-04-30T10:36:50;102509.66;;;17.49;100.00
48668;BME280;34453;52.198;5.004;2023-04-30T10:39:20;102499.63;;;17.80;100.00
48668;BME280;34453;52.198;5.004;2023-04-30T10:41:47;102502.66;;;17.57;100.00
48668;BME280;34453;52.198;5.004;2023-04-30T10:44:13;102496.44;;;17.76;100.00
48668;BME280;34453;52.198;5.004;2023-04-30T10:46:39;102502.53;;;17.87;100.00
48668;BME280;34453;52.198;5.004;2023-04-30T10:49:05;102486.06;;;17.93;100.00
48668;BME280;34453;52.198;5.004;2023-04-30T10:51:49;102486.22;;;17.54;100.00
48668;BME280;34453;52.198;5.004;2023-04-30T10:54:34;102488.34;;;17.50;100.00
48668;BME280;34453;52.198;5.004;2023-04-30T10:57:16;102486.06;;;17.93;100.00
48668;BME280;34453;52.198;5.004;2023-04-30T11:02:43;102480.97;;;17.81;100.00
48668;BME280;34453;52.198;5.004;2023-04-30T11:05:12;102481.22;;;18.06;100.00
48668;BME280;34453;52.198;5.004;2023-04-30T11:07:49;102474.69;;;17.83;100.00
48668;BME280;34453;52.198;5.004;2023-04-30T11:10:21;102478.53;;;17.60;100.00
48668;BME280;34453;52.198;5.004;2023-04-30T11:12:48;102464.66;;;18.04;100.00
48668;BME280;34453;52.198;5.004;2023-04-30T11:15:17;102466.38;;;17.50;100.00
48668;BME280;34453;52.198;5.004;2023-04-30T11:17:44;102462.19;;;17.75;100.00
48668;BME280;34453;52.198;5.004;2023-04-30T11:20:18;102464.09;;;17.55;100.00
48668;BME280;34453;52.198;5.004;2023-04-30T11:22:44;102448.31;;;17.91;100.00
48668;BME280;34453;52.198;5.004;2023-04-30T11:25:11;102457.00;;;18.63;100.00
48668;BME280;34453;52.198;5.004;2023-04-30T11:27:42;102451.41;;;18.84;100.00
48668;BME280;34453;52.198;5.004;2023-04-30T11:30:16;102448.06;;;19.16;100.00
48668;BME280;34453;52.198;5.004;2023-04-30T11:32:44;102448.34;;;19.05;100.00
48668;BME280;34453;52.198;5.004;2023-04-30T11:35:12;102440.56;;;19.03;100.00
48668;BME280;34453;52.198;5.004;2023-04-30T11:37:42;102433.25;;;18.53;100.00
48668;BME280;34453;52.198;5.004;2023-04-30T11:40:12;102444.88;;;17.98;100.00
48668;BME280;34453;52.198;5.004;2023-04-30T11:42:41;102444.28;;;18.22;100.00
48668;BME280;34453;52.198;5.004;2023-04-30T11:45:16;102438.97;;;18.22;100.00
48668;BME280;34453;52.198;5.004;2023-04-30T11:47:46;102428.53;;;18.39;100.00
48668;BME280;34453;52.198;5.004;2023-04-30T11:50:14;102429.47;;;17.94;100.00
48668;BME280;34453;52.198;5.004;2023-04-30T11:52:41;102426.28;;;18.26;100.00
48668;BME280;34453;52.198;5.004;2023-04-30T11:55:15;102420.50;;;18.75;100.00
48668;BME280;34453;52.198;5.004;2023-04-30T11:57:42;102415.63;;;18.88;100.00
48668;BME280;34453;52.198;5.004;2023-04-30T12:00:17;102416.03;;;19.01;100.00
48668;BME280;34453;52.198;5.004;2023-04-30T12:02:44;102409.69;;;18.94;100.00
48668;BME280;34453;52.198;5.004;2023-04-30T12:05:20;102408.16;;;19.26;100.00
48668;BME280;34453;52.198;5.004;2023-04-30T12:07:53;102399.94;;;19.54;100.00
48668;BME280;34453;52.198;5.004;2023-04-30T12:10:20;102399.91;;;19.37;100.00
48668;BME280;34453;52.198;5.004;2023-04-30T12:12:51;102405.38;;;19.28;100.00
48668;BME280;34453;52.198;5.004;2023-04-30T12:15:22;102395.66;;;19.61;100.00
48668;BME280;34453;52.198;5.004;2023-04-30T12:17:50;102392.22;;;20.18;100.00
48668;BME280;34453;52.198;5.004;2023-04-30T12:20:16;102395.72;;;20.10;100.00
48668;BME280;34453;52.198;5.004;2023-04-30T12:22:43;102388.75;;;20.01;100.00
48668;BME280;34453;52.198;5.004;2023-04-30T12:25:19;102389.88;;;20.72;100.00
48668;BME280;34453;52.198;5.004;2023-04-30T12:27:51;102385.72;;;20.61;100.00
48668;BME280;34453;52.198;5.004;2023-04-30T12:30:25;102380.56;;;20.52;100.00
48668;BME280;34453;52.198;5.004;2023-04-30T12:32:53;102378.34;;;20.88;100.00
48668;BME280;34453;52.198;5.004;2023-04-30T12:35:22;102375.28;;;20.99;100.00
48668;BME280;34453;52.198;5.004;2023-04-30T12:38:02;102381.22;;;20.70;100.00
48668;BME280;34453;52.198;5.004;2023-04-30T12:40:28;102376.41;;;20.65;100.00
48668;BME280;34453;52.198;5.004;2023-04-30T12:43:07;102372.81;;;20.17;100.00
48668;BME280;34453;52.198;5.004;2023-04-30T12:45:44;102366.09;;;20.54;100.00
48668;BME280;34453;52.198;5.004;2023-04-30T12:48:10;102370.44;;;20.63;100.00
48668;BME280;34453;52.198;5.004;2023-04-30T12:50:36;102366.84;;;20.15;100.00
48668;BME280;34453;52.198;5.004;2023-04-30T12:53:03;102370.22;;;20.81;100.00
48668;BME280;34453;52.198;5.004;2023-04-30T12:55:29;102371.06;;;20.74;100.00
48668;BME280;34453;52.198;5.004;2023-04-30T12:58:06;102364.94;;;21.44;100.00
48668;BME280;34453;52.198;5.004;2023-04-30T13:00:49;102360.63;;;21.66;100.00
48668;BME280;34453;52.198;5.004;2023-04-30T13:03:20;102349.47;;;21.85;100.00
48668;BME280;34453;52.198;5.004;2023-04-30T13:05:48;102350.13;;;21.87;100.00